DW4993 Weather Reports


time (UTC)temp
C
wind
direction
speed
KPH
gust
KPH
rain 1hr
cm
rain 24hr
cm
rain mn
cm
humidity
%
barometer
mb
20191022190305 13 284 11.3 19.3 0.00 0.00 0.00 31 1004.5
20191022185806 13 282 6.4 19.3 0.00 0.00 0.00 32 1004.5
20191022185304 13 23 9.7 14.5 0.00 0.00 0.00 32 1004.6
20191022184804 13 288 12.9 29.0 0.00 0.00 0.00 32 1004.6
20191022184305 13 298 9.7 19.3 0.00 0.00 0.00 34 1004.5
20191022183805 12 316 6.4 16.1 0.00 0.00 0.00 35 1004.5
20191022183304 12 291 9.7 19.3 0.00 0.00 0.00 36 1004.5
20191022182805 12 316 8.0 14.5 0.00 0.00 0.00 37 1004.5
20191022182304 12 286 9.7 22.5 0.00 0.00 0.00 36 1004.5
20191022181804 12 303 11.3 20.9 0.00 0.00 0.00 36 1004.5
20191022181304 12 286 11.3 19.3 0.00 0.00 0.00 39 1004.6
20191022180804 12 288 9.7 19.3 0.00 0.00 0.00 40 1004.5
20191022180305 11 295 8.0 19.3 0.00 0.00 0.00 43 1004.5
20191022175804 11 302 11.3 22.5 0.00 0.00 0.00 43 1004.5
20191022175306 11 242 9.7 22.5 0.00 0.00 0.00 44 1004.5
20191022174806 10 294 8.0 19.3 0.00 0.00 0.00 45 1004.5
20191022174305 11 297 9.7 20.9 0.00 0.00 0.00 44 1004.5
20191022173805 11 285 11.3 22.5 0.00 0.00 0.00 44 1004.5
20191022173305 11 289 12.9 25.7 0.00 0.00 0.00 44 1004.3
20191022172805 11 279 11.3 19.3 0.00 0.00 0.00 45 1004.2
20191022172305 10 262 9.7 19.3 0.00 0.00 0.00 46 1004.2
20191022171805 10 275 6.4 14.5 0.00 0.00 0.00 49 1004.2
20191022171305 10 275 3.2 9.7 0.00 0.00 0.00 51 1004.2
20191022170805 9 275 3.2 9.7 0.00 0.00 0.00 54 1004.2
20191022170304 8 275 3.2 9.7 0.00 0.00 0.00 57 1004.3
20191022165805 8 275 3.2 4.8 0.00 0.00 0.00 58 1004.3
20191022165305 7 275 3.2 4.8 0.00 0.00 0.00 59 1004.2
20191022164804 7 274 4.8 4.8 0.00 0.00 0.00 59 1004.3
20191022164305 7 273 3.2 4.8 0.00 0.00 0.00 59 1004.2
20191022163804 7 273 3.2 4.8 0.00 0.00 0.00 59 1004.1
20191022163305 7 273 3.2 9.7 0.00 0.00 0.00 59 1004.1
20191022162805 7 273 3.2 9.7 0.00 0.00 0.00 59 1004.0
20191022162304 7 271 4.8 9.7 0.00 0.00 0.00 60 1003.8
20191022161805 7 262 4.8 9.7 0.00 0.00 0.00 61 1003.8
20191022161305 7 262 4.8 9.7 0.00 0.00 0.00 61 1003.7
20191022160805 6 248 6.4 9.7 0.00 0.00 0.00 61 1003.6
20191022160305 6 242 4.8 11.3 0.00 0.00 0.00 63 1003.6
20191022155805 6 250 4.8 8.0 0.00 0.00 0.00 65 1003.7
20191022155305 5 223 3.2 4.8 0.00 0.00 0.00 69 1003.7
20191022154805 5 223 1.6 4.8 0.00 0.00 0.00 72 1003.8
20191022154304 3 223 1.6 3.2 0.00 0.00 0.00 74 1003.9
20191022153804 3 223 1.6 3.2 0.00 0.00 0.00 76 1004.0
20191022153304 3 223 1.6 3.2 0.00 0.00 0.00 77 1004.1
20191022152805 2 223 1.6 3.2 0.00 0.00 0.00 79 1004.3
20191022152304 2 223 1.6 4.8 0.00 0.00 0.00 80 1004.3
20191022151805 2 223 3.2 4.8 0.00 0.00 0.00 81 1004.4
20191022151304 1 223 1.6 3.2 0.00 0.00 0.00 82 1004.5
20191022150805 1 223 3.2 4.8 0.00 0.00 0.00 83 1004.5
20191022150305 1 223 1.6 4.8 0.00 0.00 0.00 85 1004.6
20191022145806 0 223 1.6 4.8 0.00 0.00 0.00 85 1004.7
20191022145305 0 223 1.6 3.2 0.00 0.00 0.00 86 1004.8
20191022144805 0 223 3.2 4.8 0.00 0.00 0.00 87 1004.8
20191022144304 0 223 1.6 4.8 0.00 0.00 0.00 87 1005.0
20191022143805 0 223 0.0 3.2 0.00 0.00 0.00 87 1005.0
20191022143305 0 223 1.6 4.8 0.00 0.00 0.00 87 1004.9
20191022142804 0 223 0.0 1.6 0.00 0.00 0.00 86 1004.8
20191022142304 0 223 0.0 3.2 0.00 0.00 0.00 86 1004.6
20191022141804 0 223 1.6 4.8 0.00 0.00 0.00 86 1004.7
20191022141305 0 223 1.6 3.2 0.00 0.00 0.00 85 1004.8
20191022140805 0 223 0.0 3.2 0.00 0.00 0.00 85 1005.0
20191022140304 0 223 0.0 3.2 0.00 0.00 0.00 85 1004.9
20191022135805 0 223 0.0 1.6 0.00 0.00 0.00 85 1004.9
20191022135305 0 223 0.0 1.6 0.00 0.00 0.00 85 1005.3
20191022134804 0 223 0.0 1.6 0.00 0.00 0.00 85 1005.4
20191022134304 0 223 0.0 1.6 0.00 0.00 0.00 85 1005.3
20191022133805 0 223 0.0 3.2 0.00 0.00 0.00 85 1005.1
20191022133305 0 223 1.6 4.8 0.00 0.00 0.00 85 1005.1
20191022132804 0 223 1.6 4.8 0.00 0.00 0.00 84 1005.0
20191022132305 0 223 0.0 4.8 0.00 0.00 0.00 84 1005.0
20191022131805 0 223 0.0 3.2 0.00 0.00 0.00 84 1005.1
20191022131305 0 223 3.2 8.0 0.00 0.00 0.00 84 1005.2
20191022130804 0 223 1.6 4.8 0.00 0.00 0.00 84 1005.1
20191022130305 0 223 1.6 3.2 0.00 0.00 0.00 84 1005.0
20191022125804 0 223 1.6 4.8 0.00 0.00 0.00 84 1005.4
20191022125304 0 223 3.2 4.8 0.00 0.00 0.00 84 1005.7
20191022124804 0 223 3.2 4.8 0.00 0.00 0.00 84 1005.9
20191022124304 0 224 1.6 4.8 0.00 0.00 0.00 84 1006.0
20191022123804 0 223 1.6 8.0 0.00 0.00 0.00 84 1006.1
20191022123304 0 228 4.8 8.0 0.00 0.00 0.00 84 1006.2
20191022122804 1 232 3.2 8.0 0.00 0.00 0.00 84 1006.3
20191022122305 1 252 4.8 8.0 0.00 0.00 0.00 84 1006.6
20191022121805 1 205 1.6 4.8 0.00 0.00 0.00 84 1006.5
20191022121305 1 220 3.2 9.7 0.00 0.00 0.00 84 1006.6
20191022120805 1 244 4.8 8.0 0.00 0.00 0.00 84 1006.8
20191022120305 1 205 3.2 8.0 0.00 0.00 0.00 84 1007.0
20191022115805 1 245 3.2 8.0 0.00 0.00 0.00 84 1007.5
20191022115304 1 252 1.6 4.8 0.00 0.00 0.00 84 1007.4
20191022114805 1 245 3.2 8.0 0.00 0.00 0.00 84 1007.4
20191022114305 1 216 3.2 8.0 0.00 0.00 0.00 84 1007.6
20191022113805 1 210 3.2 8.0 0.00 0.00 0.00 84 1007.7
20191022113304 1 210 3.2 4.8 0.00 0.00 0.00 84 1007.9
20191022112805 1 210 1.6 4.8 0.00 0.00 0.00 84 1007.9
20191022112305 1 210 3.2 4.8 0.00 0.00 0.00 83 1008.0
20191022111804 1 210 1.6 4.8 0.00 0.00 0.00 83 1008.2
20191022111305 1 210 1.6 4.8 0.00 0.00 0.00 83 1008.3
20191022110805 1 213 1.6 4.8 0.00 0.00 0.00 83 1008.5
20191022110305 1 213 3.2 8.0 0.00 0.00 0.00 83 1008.6
20191022105805 1 215 1.6 8.0 0.00 0.00 0.00 83 1008.7
20191022105305 1 215 1.6 4.8 0.00 0.00 0.00 83 1008.9
20191022104805 1 216 3.2 8.0 0.00 0.00 0.00 83 1009.2
20191022104305 1 215 3.2 8.0 0.00 0.00 0.00 84 1009.3
20191022103805 1 241 1.6 4.8 0.00 0.00 0.00 84 1009.5
20191022103305 1 241 1.6 4.8 0.00 0.00 0.00 84 1009.7
20191022102806 1 241 1.6 4.8 0.00 0.00 0.00 84 1009.9
20191022102305 1 233 3.2 4.8 0.00 0.00 0.00 84 1010.1
20191022101805 0 78 1.6 4.8 0.00 0.00 0.00 84 1010.3
20191022101304 0 78 1.6 4.8 0.00 0.00 0.00 85 1010.4
20191022100804 0 78 1.6 3.2 0.00 0.00 0.00 85 1010.5
20191022100305 0 78 1.6 4.8 0.00 0.00 0.00 85 1010.7
20191022095804 0 78 1.6 3.2 0.00 0.00 0.00 86 1010.8
20191022095305 0 78 0.0 3.2 0.00 0.00 0.00 86 1011.0
20191022094805 0 78 1.6 3.2 0.00 0.00 0.00 87 1011.1
20191022094305 0 78 1.6 3.2 0.00 0.00 0.00 87 1011.2
20191022093805 0 78 0.0 1.6 0.00 0.00 0.00 86 1011.3
20191022093304 0 78 0.0 1.6 0.00 0.00 0.00 87 1011.6
20191022092805 0 78 0.0 0.0 0.00 0.00 0.00 86 1011.6
20191022092305 0 78 0.0 3.2 0.00 0.00 0.00 86 1011.6
20191022091805 0 78 0.0 3.2 0.00 0.00 0.00 87 1011.7
20191022091304 0 78 0.0 0.0 0.00 0.00 0.00 86 1011.9
20191022090805 0 78 0.0 0.0 0.00 0.00 0.00 85 1012.1
20191022090305 0 78 0.0 0.0 0.00 0.00 0.00 85 1012.1
20191022085805 0 78 0.0 0.0 0.00 0.00 0.00 85 1012.1
20191022085305 0 78 0.0 0.0 0.00 0.00 0.00 85 1012.2
20191022084804 0 78 0.0 0.0 0.00 0.00 0.00 85 1012.3
20191022084305 0 78 0.0 3.2 0.00 0.00 0.00 86 1012.3
20191022083806 0 78 0.0 3.2 0.00 0.00 0.00 86 1012.4
20191022083305 0 78 0.0 0.0 0.00 0.00 0.00 85 1012.7
20191022082804 0 78 0.0 0.0 0.00 0.00 0.00 85 1012.8
20191022082306 -1 78 0.0 0.0 0.00 0.00 0.00 85 1012.9
20191022081805 -1 78 0.0 0.0 0.00 0.00 0.00 86 1012.8
20191022081305 -1 78 0.0 0.0 0.00 0.00 0.00 85 1012.8
20191022080804 -1 78 0.0 0.0 0.00 0.00 0.00 86 1012.8
20191022080304 -1 78 0.0 0.0 0.00 0.00 0.00 85 1012.9
20191022075805 -1 78 0.0 0.0 0.00 0.00 0.00 85 1013.0
20191022075306 -1 78 0.0 0.0 0.00 0.00 0.00 84 1013.1
20191022074805 -1 78 0.0 0.0 0.00 0.00 0.00 84 1013.1
20191022074306 -1 78 0.0 0.0 0.00 0.00 0.00 84 1013.2
20191022073804 -1 78 0.0 0.0 0.00 0.00 0.00 84 1013.3
20191022073304 -1 78 0.0 0.0 0.00 0.00 0.00 84 1013.4
20191022072805 -1 78 0.0 0.0 0.00 0.00 0.00 84 1013.5
20191022072307 -1 78 0.0 1.6 0.00 0.00 0.00 84 1013.5
20191022071805 -1 78 0.0 0.0 0.00 0.00 0.00 84 1013.7
20191022071305 -1 78 0.0 1.6 0.00 0.00 0.00 83 1013.8
20191022070805 -1 78 0.0 0.0 0.00 0.00 0.00 82 1013.8
20191022070305 -1 78 0.0 0.0 0.00 0.00 0.00 82 1014.0
20191022065805 -1 78 0.0 0.0 0.00 0.00 0.00 82 1014.1
20191022065305 -1 78 0.0 0.0 0.00 0.00 0.00 82 1014.2
20191022064805 -1 78 0.0 1.6 0.00 0.00 0.00 83 1014.3
20191022064305 -1 78 0.0 1.6 0.00 0.00 0.00 83 1014.4
20191022063805 -1 78 0.0 0.0 0.00 0.00 0.00 82 1014.4
20191022063305 -1 78 0.0 0.0 0.00 0.00 0.00 82 1014.4
20191022062805 -1 78 0.0 1.6 0.00 0.00 0.00 83 1014.5
20191022062305 -1 78 0.0 1.6 0.00 0.00 0.00 82 1014.5
20191022061805 -1 78 0.0 0.0 0.00 0.00 0.00 82 1014.6
20191022061304 -1 78 0.0 0.0 0.00 0.00 0.00 81 1014.9
20191022060818 -1 78 0.0 0.0 0.00 0.00 0.00 80 1015.0
20191022060305 -1 78 0.0 0.0 0.00 0.00 0.00 79 1015.3
20191022055805 0 78 0.0 0.0 0.00 0.00 0.00 79 1015.5
20191022055304 0 78 0.0 0.0 0.00 0.00 0.00 79 1015.5
20191022054805 0 78 0.0 0.0 0.00 0.00 0.00 78 1015.3
20191022054304 0 78 0.0 0.0 0.00 0.00 0.00 78 1015.2
20191022053805 0 78 0.0 0.0 0.00 0.00 0.00 78 1015.2
20191022053304 0 78 0.0 0.0 0.00 0.00 0.00 78 1015.3
20191022052804 0 78 0.0 3.2 0.00 0.00 0.00 78 1015.2
20191022052305 0 78 3.2 4.8 0.00 0.00 0.00 78 1015.1
20191022051805 0 78 1.6 3.2 0.00 0.00 0.00 78 1015.1
20191022051304 0 78 0.0 1.6 0.00 0.00 0.00 78 1015.2
20191022050805 0 78 1.6 3.2 0.00 0.00 0.00 78 1015.2
20191022050305 0 78 1.6 4.8 0.00 0.00 0.00 79 1015.3
20191022045804 0 78 3.2 4.8 0.00 0.00 0.00 79 1015.4
20191022045304 0 61 1.6 4.8 0.00 0.00 0.00 77 1015.4
20191022044805 0 73 4.8 9.7 0.00 0.00 0.00 76 1015.2
20191022044304 0 63 1.6 4.8 0.00 0.00 0.00 73 1015.5
20191022043804 0 63 1.6 3.2 0.00 0.00 0.00 73 1015.4
20191022043305 0 63 1.6 4.8 0.00 0.00 0.00 73 1015.5
20191022042804 0 63 3.2 4.8 0.00 0.00 0.00 73 1015.7
20191022042305 1 63 1.6 4.8 0.00 0.00 0.00 72 1015.7
20191022041805 1 63 3.2 4.8 0.00 0.00 0.00 72 1015.7
20191022041305 1 63 1.6 4.8 0.00 0.00 0.00 72 1015.7
20191022040804 1 63 1.6 4.8 0.00 0.00 0.00 72 1015.8
20191022040305 1 63 3.2 4.8 0.00 0.00 0.00 71 1015.6
20191022035805 1 63 1.6 3.2 0.00 0.00 0.00 70 1015.7
20191022035305 1 63 1.6 3.2 0.00 0.00 0.00 69 1015.7
20191022034805 1 63 1.6 3.2 0.00 0.00 0.00 69 1015.6
20191022034304 1 63 1.6 4.8 0.00 0.00 0.00 68 1015.4
20191022033805 2 63 1.6 4.8 0.00 0.00 0.00 66 1015.5
20191022033305 2 63 1.6 8.0 0.00 0.00 0.00 65 1015.6
20191022032805 2 63 1.6 8.0 0.00 0.00 0.00 64 1015.7
20191022032305 2 63 3.2 4.8 0.00 0.00 0.00 63 1015.5
20191022031804 2 63 3.2 4.8 0.00 0.00 0.00 62 1015.4
20191022031304 3 63 3.2 4.8 0.00 0.00 0.00 61 1015.3
20191022030805 3 63 1.6 4.8 0.00 0.00 0.00 60 1015.2
20191022030304 3 64 1.6 4.8 0.00 0.00 0.00 60 1015.1
20191022025804 3 78 4.8 12.9 0.00 0.00 0.00 59 1015.2
20191022025305 3 75 3.2 4.8 0.00 0.00 0.00 56 1015.2
20191022024804 3 58 4.8 14.5 0.00 0.00 0.00 55 1015.0
20191022024304 4 61 4.8 14.5 0.00 0.00 0.00 54 1014.9
20191022023804 4 59 8.0 12.9 0.00 0.00 0.00 52 1014.9
20191022023304 4 48 8.0 14.5 0.00 0.00 0.00 50 1014.9
20191022022805 4 55 4.8 12.9 0.00 0.00 0.00 49 1014.9
20191022022304 5 59 4.8 12.9 0.00 0.00 0.00 48 1015.0
20191022021805 5 34 1.6 8.0 0.00 0.00 0.00 47 1014.8
20191022021304 5 273 3.2 4.8 0.00 0.00 0.00 46 1014.6
20191022020805 6 281 3.2 8.0 0.00 0.00 0.00 46 1014.6
20191022020305 6 298 3.2 4.8 0.00 0.00 0.00 46 1014.5
20191022015805 6 290 3.2 11.3 0.00 0.00 0.00 45 1014.5
20191022015304 6 299 4.8 11.3 0.00 0.00 0.00 45 1014.5
20191022014804 6 284 4.8 11.3 0.00 0.00 0.00 45 1014.4
20191022014304 6 297 3.2 9.7 0.00 0.00 0.00 44 1014.5
20191022013805 6 295 3.2 11.3 0.00 0.00 0.00 44 1014.5
20191022013305 6 294 3.2 4.8 0.00 0.00 0.00 44 1014.6
20191022012804 6 302 4.8 9.7 0.00 0.00 0.00 43 1014.6
20191022012305 6 296 3.2 9.7 0.00 0.00 0.00 42 1014.6
20191022011805 7 291 3.2 9.7 0.00 0.00 0.00 42 1014.6
20191022011305 7 301 4.8 11.3 0.00 0.00 0.00 41 1014.4
20191022010805 7 282 4.8 11.3 0.00 0.00 0.00 41 1014.3
20191022010305 7 300 4.8 12.9 0.00 0.00 0.00 40 1014.4
20191022005805 7 297 8.0 12.9 0.00 0.00 0.00 40 1014.4
20191022005305 7 287 8.0 16.1 0.00 0.00 0.00 39 1014.3
20191022004804 7 278 4.8 11.3 0.00 0.00 0.00 39 1014.3
20191022004305 7 280 4.8 14.5 0.00 0.00 0.00 39 1014.3
20191022003804 8 307 4.8 11.3 0.00 0.00 0.00 38 1014.3
20191022003305 8 298 4.8 11.3 0.00 0.00 0.00 38 1014.2
20191022002804 8 305 4.8 12.9 0.00 0.00 0.00 37 1014.2
20191022002304 8 293 8.0 20.9 0.00 0.00 0.00 37 1014.3
20191022001805 8 289 4.8 20.9 0.00 0.00 0.00 37 1014.3
20191022001305 8 298 6.4 11.3 0.00 0.00 0.00 36 1014.2
20191022000804 8 286 8.0 12.9 0.00 0.00 0.00 36 1014.2
20191022000305 8 292 8.0 14.5 0.00 0.00 0.00 35 1014.2
20191021235805 9 295 8.0 14.5 0.00 0.00 0.00 35 1014.2
20191021235305 9 283 8.0 14.5 0.00 0.00 0.00 35 1014.2
20191021234805 9 288 8.0 19.3 0.00 0.00 0.00 34 1014.2
20191021234305 10 290 9.7 19.3 0.00 0.00 0.00 33 1014.2
20191021233804 10 295 8.0 19.3 0.00 0.00 0.00 32 1014.2
20191021233304 10 279 9.7 19.3 0.00 0.00 0.00 32 1014.1
20191021232804 10 284 9.7 19.3 0.00 0.00 0.00 32 1014.1
20191021232305 10 296 8.0 16.1 0.00 0.00 0.00 32 1014.1
20191021231805 10 281 9.7 20.9 0.00 0.00 0.00 32 1014.1
20191021231304 10 279 12.9 20.9 0.00 0.00 0.00 31 1014.2
20191021230805 10 287 9.7 16.1 0.00 0.00 0.00 31 1014.1
20191021230304 10 282 12.9 20.9 0.00 0.00 0.00 31 1014.1
20191021225805 10 285 11.3 20.9 0.00 0.00 0.00 31 1014.1
20191021225304 10 286 12.9 19.3 0.00 0.00 0.00 31 1014.0
20191021224804 11 304 11.3 20.9 0.00 0.00 0.00 31 1013.9
20191021224305 11 292 11.3 25.7 0.00 0.00 0.00 31 1013.8
20191021223804 11 286 9.7 16.1 0.00 0.00 0.00 30 1013.8
20191021223304 11 282 9.7 20.9 0.00 0.00 0.00 31 1013.8
20191021222804 11 277 11.3 20.9 0.00 0.00 0.00 30 1013.7
20191021222304 11 291 8.0 16.1 0.00 0.00 0.00 30 1013.7
20191021221804 11 266 9.7 19.3 0.00 0.00 0.00 30 1013.7
20191021221305 11 295 9.7 19.3 0.00 0.00 0.00 30 1013.7
20191021220805 11 282 9.7 19.3 0.00 0.00 0.00 30 1013.7
20191021220305 11 290 9.7 14.5 0.00 0.00 0.00 30 1013.7
20191021215805 11 288 8.0 12.9 0.00 0.00 0.00 30 1013.7
20191021215305 11 285 11.3 20.9 0.00 0.00 0.00 30 1013.6
20191021214805 11 300 8.0 16.1 0.00 0.00 0.00 30 1013.6
20191021214304 11 300 9.7 19.3 0.00 0.00 0.00 30 1013.5
20191021213804 11 298 9.7 19.3 0.00 0.00 0.00 31 1013.4
20191021213305 11 279 9.7 19.3 0.00 0.00 0.00 31 1013.5
20191021212805 11 286 9.7 14.5 0.00 0.00 0.00 31 1013.5
20191021212304 11 283 9.7 14.5 0.00 0.00 0.00 31 1013.4
20191021211804 11 291 9.7 16.1 0.00 0.00 0.00 31 1013.4
20191021211304 10 293 9.7 16.1 0.00 0.00 0.00 31 1013.5
20191021210805 11 306 9.7 19.3 0.00 0.00 0.00 31 1013.4
20191021210306 10 300 9.7 19.3 0.00 0.00 0.00 32 1013.4
20191021205805 10 279 9.7 19.3 0.00 0.00 0.00 31 1013.3
20191021205305 10 281 8.0 14.5 0.00 0.00 0.00 32 1013.4
20191021204806 10 278 9.7 14.5 0.00 0.00 0.00 32 1013.3
20191021204304 10 273 9.7 16.1 0.00 0.00 0.00 31 1013.3
20191021203805 10 300 9.7 16.1 0.00 0.00 0.00 31 1013.3
20191021203304 10 288 8.0 19.3 0.00 0.00 0.00 31 1013.2
20191021202805 10 287 6.4 19.3 0.00 0.00 0.00 32 1013.3
20191021202305 10 288 9.7 19.3 0.00 0.00 0.00 31 1013.3
20191021201804 10 297 8.0 12.9 0.00 0.00 0.00 31 1013.2
20191021201304 10 302 9.7 19.3 0.00 0.00 0.00 31 1013.3
20191021200804 10 285 4.8 19.3 0.00 0.00 0.00 32 1013.3
20191021200305 10 295 9.7 19.3 0.00 0.00 0.00 32 1013.3
20191021195805 10 284 11.3 19.3 0.00 0.00 0.00 32 1013.3
20191021195304 10 281 11.3 25.7 0.00 0.00 0.00 32 1013.4
20191021194805 10 296 14.5 22.5 0.00 0.00 0.00 31 1013.4
20191021194304 10 298 8.0 16.1 0.00 0.00 0.00 32 1013.4
20191021193804 10 290 6.4 19.3 0.00 0.00 0.00 32 1013.4
20191021193304 10 280 9.7 19.3 0.00 0.00 0.00 32 1013.4
20191021192804 10 263 8.0 19.3 0.00 0.00 0.00 33 1013.4
20191021192305 10 279 9.7 19.3 0.00 0.00 0.00 34 1013.4
20191021191805 10 280 8.0 19.3 0.00 0.00 0.00 36 1013.3
20191021191305 9 290 9.7 16.1 0.00 0.00 0.00 36 1013.4
20191021190805 9 265 4.8 12.9 0.00 0.00 0.00 37 1013.4